sensor_id;sensor_type;location;lat;lon;timestamp;P1;durP1;ratioP1;P2;durP2;ratioP2
11887;SDS011;6003;42.756;23.130;2022-11-15T00:01:07;35.93;;;19.63;;
11887;SDS011;6003;42.756;23.130;2022-11-15T00:03:34;51.73;;;24.77;;
11887;SDS011;6003;42.756;23.130;2022-11-15T00:06:03;35.77;;;20.23;;
11887;SDS011;6003;42.756;23.130;2022-11-15T00:08:31;36.97;;;19.43;;
11887;SDS011;6003;42.756;23.130;2022-11-15T00:10:59;24.97;;;13.30;;
11887;SDS011;6003;42.756;23.130;2022-11-15T00:13:27;24.60;;;14.67;;
11887;SDS011;6003;42.756;23.130;2022-11-15T00:15:56;29.97;;;15.13;;
11887;SDS011;6003;42.756;23.130;2022-11-15T00:18:24;29.70;;;14.57;;
11887;SDS011;6003;42.756;23.130;2022-11-15T00:20:51;30.73;;;13.73;;
11887;SDS011;6003;42.756;23.130;2022-11-15T00:23:19;30.90;;;16.13;;
11887;SDS011;6003;42.756;23.130;2022-11-15T00:25:46;29.00;;;15.33;;
11887;SDS011;6003;42.756;23.130;2022-11-15T00:28:13;25.17;;;14.87;;
11887;SDS011;6003;42.756;23.130;2022-11-15T00:30:39;28.17;;;15.20;;
11887;SDS011;6003;42.756;23.130;2022-11-15T00:33:06;32.30;;;14.63;;
11887;SDS011;6003;42.756;23.130;2022-11-15T00:35:34;25.23;;;14.23;;
11887;SDS011;6003;42.756;23.130;2022-11-15T00:38:01;30.77;;;16.37;;
11887;SDS011;6003;42.756;23.130;2022-11-15T00:40:30;35.70;;;17.73;;
11887;SDS011;6003;42.756;23.130;2022-11-15T00:42:57;29.73;;;15.03;;
11887;SDS011;6003;42.756;23.130;2022-11-15T00:45:24;29.43;;;14.33;;
11887;SDS011;6003;42.756;23.130;2022-11-15T00:47:52;20.87;;;13.20;;
11887;SDS011;6003;42.756;23.130;2022-11-15T00:50:18;29.43;;;15.70;;
11887;SDS011;6003;42.756;23.130;2022-11-15T00:52:45;27.17;;;13.43;;
11887;SDS011;6003;42.756;23.130;2022-11-15T00:55:13;25.37;;;13.43;;
11887;SDS011;6003;42.756;23.130;2022-11-15T00:57:42;25.70;;;14.17;;
11887;SDS011;6003;42.756;23.130;2022-11-15T01:00:09;27.10;;;14.57;;
11887;SDS011;6003;42.756;23.130;2022-11-15T01:02:37;26.67;;;14.37;;
11887;SDS011;6003;42.756;23.130;2022-11-15T01:05:04;26.63;;;14.47;;
11887;SDS011;6003;42.756;23.130;2022-11-15T01:07:31;29.73;;;15.37;;
11887;SDS011;6003;42.756;23.130;2022-11-15T01:09:58;25.33;;;14.40;;
11887;SDS011;6003;42.756;23.130;2022-11-15T01:12:25;26.33;;;13.33;;
11887;SDS011;6003;42.756;23.130;2022-11-15T01:14:53;25.17;;;13.40;;
11887;SDS011;6003;42.756;23.130;2022-11-15T01:17:20;24.47;;;12.50;;
11887;SDS011;6003;42.756;23.130;2022-11-15T01:19:47;22.67;;;12.83;;
11887;SDS011;6003;42.756;23.130;2022-11-15T01:22:13;25.57;;;13.10;;
11887;SDS011;6003;42.756;23.130;2022-11-15T01:24:40;24.97;;;12.63;;
11887;SDS011;6003;42.756;23.130;2022-11-15T01:27:07;24.57;;;13.23;;
11887;SDS011;6003;42.756;23.130;2022-11-15T01:29:35;24.77;;;13.83;;
11887;SDS011;6003;42.756;23.130;2022-11-15T01:32:03;23.97;;;12.90;;
11887;SDS011;6003;42.756;23.130;2022-11-15T01:34:30;30.33;;;12.90;;
11887;SDS011;6003;42.756;23.130;2022-11-15T01:36:57;27.37;;;14.10;;
11887;SDS011;6003;42.756;23.130;2022-11-15T01:39:24;22.13;;;13.60;;
11887;SDS011;6003;42.756;23.130;2022-11-15T01:41:51;24.47;;;12.67;;
11887;SDS011;6003;42.756;23.130;2022-11-15T01:44:38;23.67;;;13.93;;
11887;SDS011;6003;42.756;23.130;2022-11-15T01:47:09;24.77;;;12.97;;
11887;SDS011;6003;42.756;23.130;2022-11-15T01:49:40;21.33;;;12.43;;
11887;SDS011;6003;42.756;23.130;2022-11-15T01:52:12;22.63;;;13.33;;
11887;SDS011;6003;42.756;23.130;2022-11-15T01:54:43;23.57;;;13.87;;
11887;SDS011;6003;42.756;23.130;2022-11-15T01:57:11;23.63;;;13.20;;
11887;SDS011;6003;42.756;23.130;2022-11-15T01:59:39;23.97;;;13.90;;
11887;SDS011;6003;42.756;23.130;2022-11-15T02:02:10;19.67;;;10.90;;
11887;SDS011;6003;42.756;23.130;2022-11-15T02:04:40;17.80;;;11.80;;
11887;SDS011;6003;42.756;23.130;2022-11-15T02:07:08;21.57;;;12.00;;
11887;SDS011;6003;42.756;23.130;2022-11-15T02:09:37;17.47;;;10.97;;
11887;SDS011;6003;42.756;23.130;2022-11-15T02:12:05;22.73;;;12.27;;
11887;SDS011;6003;42.756;23.130;2022-11-15T02:14:33;20.17;;;11.17;;
11887;SDS011;6003;42.756;23.130;2022-11-15T02:17:03;22.47;;;12.10;;
11887;SDS011;6003;42.756;23.130;2022-11-15T02:22:44;19.70;;;10.33;;
11887;SDS011;6003;42.756;23.130;2022-11-15T02:25:28;24.07;;;11.70;;
11887;SDS011;6003;42.756;23.130;2022-11-15T02:28:08;23.07;;;12.17;;
11887;SDS011;6003;42.756;23.130;2022-11-15T02:30:46;17.00;;;11.03;;
11887;SDS011;6003;42.756;23.130;2022-11-15T02:33:22;18.63;;;11.20;;
11887;SDS011;6003;42.756;23.130;2022-11-15T02:35:57;19.33;;;9.77;;
11887;SDS011;6003;42.756;23.130;2022-11-15T02:38:29;17.40;;;10.60;;
11887;SDS011;6003;42.756;23.130;2022-11-15T02:41:01;18.90;;;9.87;;
11887;SDS011;6003;42.756;23.130;2022-11-15T02:43:33;18.93;;;10.70;;
11887;SDS011;6003;42.756;23.130;2022-11-15T02:46:26;19.50;;;8.73;;
11887;SDS011;6003;42.756;23.130;2022-11-15T02:49:16;14.90;;;9.13;;
11887;SDS011;6003;42.756;23.130;2022-11-15T02:51:43;14.73;;;9.90;;
11887;SDS011;6003;42.756;23.130;2022-11-15T02:54:14;17.83;;;10.17;;
11887;SDS011;6003;42.756;23.130;2022-11-15T02:56:50;17.67;;;10.50;;
11887;SDS011;6003;42.756;23.130;2022-11-15T02:59:27;17.87;;;10.90;;
11887;SDS011;6003;42.756;23.130;2022-11-15T03:02:18;22.03;;;10.70;;
11887;SDS011;6003;42.756;23.130;2022-11-15T03:04:54;18.97;;;10.37;;
11887;SDS011;6003;42.756;23.130;2022-11-15T03:07:26;16.83;;;10.43;;
11887;SDS011;6003;42.756;23.130;2022-11-15T03:09:57;20.13;;;10.37;;
11887;SDS011;6003;42.756;23.130;2022-11-15T03:12:30;21.60;;;11.30;;
11887;SDS011;6003;42.756;23.130;2022-11-15T03:15:05;22.23;;;11.47;;
11887;SDS011;6003;42.756;23.130;2022-11-15T03:17:37;19.40;;;10.70;;
11887;SDS011;6003;42.756;23.130;2022-11-15T03:20:09;19.20;;;11.50;;
11887;SDS011;6003;42.756;23.130;2022-11-15T03:22:40;24.90;;;11.20;;
11887;SDS011;6003;42.756;23.130;2022-11-15T03:25:13;24.07;;;11.70;;
11887;SDS011;6003;42.756;23.130;2022-11-15T03:27:44;22.07;;;11.20;;
11887;SDS011;6003;42.756;23.130;2022-11-15T03:30:16;28.87;;;12.03;;
11887;SDS011;6003;42.756;23.130;2022-11-15T03:32:46;26.90;;;12.43;;
11887;SDS011;6003;42.756;23.130;2022-11-15T03:35:14;23.70;;;12.87;;
11887;SDS011;6003;42.756;23.130;2022-11-15T03:37:46;28.03;;;10.80;;
11887;SDS011;6003;42.756;23.130;2022-11-15T03:40:17;23.93;;;12.13;;
11887;SDS011;6003;42.756;23.130;2022-11-15T03:42:48;34.87;;;13.30;;
11887;SDS011;6003;42.756;23.130;2022-11-15T03:45:26;28.13;;;14.33;;
11887;SDS011;6003;42.756;23.130;2022-11-15T03:47:59;27.70;;;13.50;;
11887;SDS011;6003;42.756;23.130;2022-11-15T03:50:31;35.27;;;13.50;;
11887;SDS011;6003;42.756;23.130;2022-11-15T03:52:58;27.83;;;14.57;;
11887;SDS011;6003;42.756;23.130;2022-11-15T03:55:25;31.93;;;13.50;;
11887;SDS011;6003;42.756;23.130;2022-11-15T03:57:52;21.90;;;10.67;;
11887;SDS011;6003;42.756;23.130;2022-11-15T04:00:22;47.30;;;11.70;;
11887;SDS011;6003;42.756;23.130;2022-11-15T04:02:49;29.53;;;12.77;;
11887;SDS011;6003;42.756;23.130;2022-11-15T04:05:17;27.93;;;11.00;;
11887;SDS011;6003;42.756;23.130;2022-11-15T04:07:44;38.17;;;11.97;;
11887;SDS011;6003;42.756;23.130;2022-11-15T04:10:11;24.40;;;12.67;;
11887;SDS011;6003;42.756;23.130;2022-11-15T04:12:39;22.33;;;9.60;;
11887;SDS011;6003;42.756;23.130;2022-11-15T04:15:08;35.70;;;13.27;;
11887;SDS011;6003;42.756;23.130;2022-11-15T04:17:38;29.13;;;14.40;;
11887;SDS011;6003;42.756;23.130;2022-11-15T04:20:07;36.37;;;14.47;;
11887;SDS011;6003;42.756;23.130;2022-11-15T04:22:56;25.53;;;13.70;;
11887;SDS011;6003;42.756;23.130;2022-11-15T04:25:41;30.80;;;13.83;;
11887;SDS011;6003;42.756;23.130;2022-11-15T04:28:09;23.00;;;11.20;;
11887;SDS011;6003;42.756;23.130;2022-11-15T04:30:36;21.00;;;10.70;;
11887;SDS011;6003;42.756;23.130;2022-11-15T04:33:04;27.83;;;12.23;;
11887;SDS011;6003;42.756;23.130;2022-11-15T04:35:30;24.87;;;11.33;;
11887;SDS011;6003;42.756;23.130;2022-11-15T04:37:59;24.20;;;12.60;;
11887;SDS011;6003;42.756;23.130;2022-11-15T04:40:25;29.10;;;12.10;;
11887;SDS011;6003;42.756;23.130;2022-11-15T04:42:51;32.97;;;12.27;;
11887;SDS011;6003;42.756;23.130;2022-11-15T04:45:18;49.63;;;14.00;;
11887;SDS011;6003;42.756;23.130;2022-11-15T04:47:45;36.53;;;12.93;;
11887;SDS011;6003;42.756;23.130;2022-11-15T04:50:14;23.50;;;12.17;;
11887;SDS011;6003;42.756;23.130;2022-11-15T04:52:42;23.37;;;11.87;;
11887;SDS011;6003;42.756;23.130;2022-11-15T04:55:11;29.67;;;12.53;;
11887;SDS011;6003;42.756;23.130;2022-11-15T04:57:38;35.87;;;12.23;;
11887;SDS011;6003;42.756;23.130;2022-11-15T05:00:05;24.90;;;11.67;;
11887;SDS011;6003;42.756;23.130;2022-11-15T05:02:33;31.17;;;14.30;;
11887;SDS011;6003;42.756;23.130;2022-11-15T05:05:17;31.03;;;13.87;;
11887;SDS011;6003;42.756;23.130;2022-11-15T05:07:44;38.27;;;12.50;;
11887;SDS011;6003;42.756;23.130;2022-11-15T05:12:48;30.07;;;13.63;;
11887;SDS011;6003;42.756;23.130;2022-11-15T05:15:15;27.17;;;12.60;;
11887;SDS011;6003;42.756;23.130;2022-11-15T05:17:42;60.50;;;12.47;;
11887;SDS011;6003;42.756;23.130;2022-11-15T05:20:09;49.97;;;11.23;;
11887;SDS011;6003;42.756;23.130;2022-11-15T05:22:37;18.43;;;8.80;;
11887;SDS011;6003;42.756;23.130;2022-11-15T05:25:07;33.53;;;10.43;;
11887;SDS011;6003;42.756;23.130;2022-11-15T05:27:35;38.07;;;10.93;;
11887;SDS011;6003;42.756;23.130;2022-11-15T05:30:02;39.20;;;10.83;;
11887;SDS011;6003;42.756;23.130;2022-11-15T05:32:29;56.07;;;11.10;;
11887;SDS011;6003;42.756;23.130;2022-11-15T05:34:56;23.27;;;10.33;;
11887;SDS011;6003;42.756;23.130;2022-11-15T05:37:23;35.17;;;9.80;;
11887;SDS011;6003;42.756;23.130;2022-11-15T05:39:56;39.60;;;11.10;;
11887;SDS011;6003;42.756;23.130;2022-11-15T05:42:23;19.67;;;9.10;;
11887;SDS011;6003;42.756;23.130;2022-11-15T05:44:54;34.17;;;10.37;;
11887;SDS011;6003;42.756;23.130;2022-11-15T05:47:21;30.00;;;9.63;;
11887;SDS011;6003;42.756;23.130;2022-11-15T05:49:52;29.20;;;7.87;;
11887;SDS011;6003;42.756;23.130;2022-11-15T05:52:20;16.20;;;8.77;;
11887;SDS011;6003;42.756;23.130;2022-11-15T05:54:50;43.30;;;9.80;;
11887;SDS011;6003;42.756;23.130;2022-11-15T05:57:18;21.77;;;8.43;;
11887;SDS011;6003;42.756;23.130;2022-11-15T05:59:45;30.87;;;10.00;;
11887;SDS011;6003;42.756;23.130;2022-11-15T06:02:13;35.23;;;8.73;;
11887;SDS011;6003;42.756;23.130;2022-11-15T06:04:40;23.00;;;7.23;;
11887;SDS011;6003;42.756;23.130;2022-11-15T06:07:06;33.60;;;10.20;;
11887;SDS011;6003;42.756;23.130;2022-11-15T06:09:33;42.73;;;12.63;;
11887;SDS011;6003;42.756;23.130;2022-11-15T06:12:00;63.53;;;12.10;;
11887;SDS011;6003;42.756;23.130;2022-11-15T06:14:27;40.40;;;13.27;;
11887;SDS011;6003;42.756;23.130;2022-11-15T06:16:53;46.63;;;12.23;;
11887;SDS011;6003;42.756;23.130;2022-11-15T06:19:22;41.07;;;10.70;;
11887;SDS011;6003;42.756;23.130;2022-11-15T06:21:49;31.27;;;10.90;;
11887;SDS011;6003;42.756;23.130;2022-11-15T06:24:15;41.70;;;14.23;;
11887;SDS011;6003;42.756;23.130;2022-11-15T06:26:42;60.80;;;13.20;;
11887;SDS011;6003;42.756;23.130;2022-11-15T06:40:54;56.07;;;11.20;;
11887;SDS011;6003;42.756;23.130;2022-11-15T06:43:20;37.27;;;9.57;;
11887;SDS011;6003;42.756;23.130;2022-11-15T06:45:47;17.77;;;7.03;;
11887;SDS011;6003;42.756;23.130;2022-11-15T06:48:14;9.83;;;6.70;;
11887;SDS011;6003;42.756;23.130;2022-11-15T06:50:41;8.63;;;6.37;;
11887;SDS011;6003;42.756;23.130;2022-11-15T06:53:07;19.53;;;7.07;;
11887;SDS011;6003;42.756;23.130;2022-11-15T06:55:34;10.47;;;6.30;;
11887;SDS011;6003;42.756;23.130;2022-11-15T06:58:02;15.77;;;6.27;;
11887;SDS011;6003;42.756;23.130;2022-11-15T07:00:29;10.33;;;7.00;;
11887;SDS011;6003;42.756;23.130;2022-11-15T07:02:59;10.53;;;7.20;;
11887;SDS011;6003;42.756;23.130;2022-11-15T07:05:26;18.63;;;6.03;;
11887;SDS011;6003;42.756;23.130;2022-11-15T07:07:53;14.17;;;7.87;;
11887;SDS011;6003;42.756;23.130;2022-11-15T07:10:21;16.30;;;7.10;;
11887;SDS011;6003;42.756;23.130;2022-11-15T07:12:49;21.97;;;7.20;;
11887;SDS011;6003;42.756;23.130;2022-11-15T07:15:17;27.40;;;7.93;;
11887;SDS011;6003;42.756;23.130;2022-11-15T07:17:45;18.17;;;6.93;;
11887;SDS011;6003;42.756;23.130;2022-11-15T07:20:12;15.37;;;7.00;;
11887;SDS011;6003;42.756;23.130;2022-11-15T07:22:39;12.77;;;6.77;;
11887;SDS011;6003;42.756;23.130;2022-11-15T07:25:06;22.00;;;6.93;;
11887;SDS011;6003;42.756;23.130;2022-11-15T07:27:34;30.97;;;6.87;;
11887;SDS011;6003;42.756;23.130;2022-11-15T07:30:01;20.80;;;8.50;;
11887;SDS011;6003;42.756;23.130;2022-11-15T07:32:30;10.77;;;6.77;;
11887;SDS011;6003;42.756;23.130;2022-11-15T07:34:56;18.47;;;7.30;;
11887;SDS011;6003;42.756;23.130;2022-11-15T07:37:23;11.07;;;7.97;;
11887;SDS011;6003;42.756;23.130;2022-11-15T07:39:50;14.67;;;8.67;;
11887;SDS011;6003;42.756;23.130;2022-11-15T07:42:17;17.27;;;8.37;;
11887;SDS011;6003;42.756;23.130;2022-11-15T07:45:01;22.87;;;8.47;;
11887;SDS011;6003;42.756;23.130;2022-11-15T07:47:29;15.60;;;8.77;;
11887;SDS011;6003;42.756;23.130;2022-11-15T07:49:56;19.50;;;8.43;;
11887;SDS011;6003;42.756;23.130;2022-11-15T07:52:23;15.40;;;8.13;;
11887;SDS011;6003;42.756;23.130;2022-11-15T07:54:49;22.30;;;8.17;;
11887;SDS011;6003;42.756;23.130;2022-11-15T07:57:17;19.03;;;8.47;;
11887;SDS011;6003;42.756;23.130;2022-11-15T07:59:43;18.53;;;8.47;;
11887;SDS011;6003;42.756;23.130;2022-11-15T08:02:10;37.67;;;9.50;;
11887;SDS011;6003;42.756;23.130;2022-11-15T08:04:38;26.67;;;8.83;;
11887;SDS011;6003;42.756;23.130;2022-11-15T08:07:05;43.13;;;11.97;;
11887;SDS011;6003;42.756;23.130;2022-11-15T08:09:32;25.40;;;8.77;;
11887;SDS011;6003;42.756;23.130;2022-11-15T08:11:58;43.33;;;10.60;;
11887;SDS011;6003;42.756;23.130;2022-11-15T08:14:25;27.13;;;10.20;;
11887;SDS011;6003;42.756;23.130;2022-11-15T08:16:52;54.47;;;9.83;;
11887;SDS011;6003;42.756;23.130;2022-11-15T08:19:20;28.67;;;11.10;;
11887;SDS011;6003;42.756;23.130;2022-11-15T08:21:48;35.47;;;13.27;;
11887;SDS011;6003;42.756;23.130;2022-11-15T08:24:15;30.93;;;12.77;;
11887;SDS011;6003;42.756;23.130;2022-11-15T08:26:42;45.20;;;10.20;;
11887;SDS011;6003;42.756;23.130;2022-11-15T08:29:09;46.77;;;12.30;;
11887;SDS011;6003;42.756;23.130;2022-11-15T08:31:36;82.80;;;11.60;;
11887;SDS011;6003;42.756;23.130;2022-11-15T08:34:05;41.53;;;10.67;;
11887;SDS011;6003;42.756;23.130;2022-11-15T08:36:33;37.73;;;12.53;;
11887;SDS011;6003;42.756;23.130;2022-11-15T08:39:01;67.83;;;11.73;;
11887;SDS011;6003;42.756;23.130;2022-11-15T08:41:29;50.77;;;11.97;;
11887;SDS011;6003;42.756;23.130;2022-11-15T08:43:58;31.43;;;10.57;;
11887;SDS011;6003;42.756;23.130;2022-11-15T08:46:25;46.17;;;12.33;;
11887;SDS011;6003;42.756;23.130;2022-11-15T08:48:51;44.53;;;11.37;;
11887;SDS011;6003;42.756;23.130;2022-11-15T08:51:18;23.83;;;12.63;;
11887;SDS011;6003;42.756;23.130;2022-11-15T08:53:45;43.23;;;13.40;;
11887;SDS011;6003;42.756;23.130;2022-11-15T08:56:14;76.27;;;13.47;;
11887;SDS011;6003;42.756;23.130;2022-11-15T08:58:41;39.97;;;13.23;;
11887;SDS011;6003;42.756;23.130;2022-11-15T09:01:14;30.77;;;13.83;;
11887;SDS011;6003;42.756;23.130;2022-11-15T09:03:42;31.73;;;12.33;;
11887;SDS011;6003;42.756;23.130;2022-11-15T09:06:09;42.93;;;13.33;;
11887;SDS011;6003;42.756;23.130;2022-11-15T09:08:36;54.53;;;14.07;;
11887;SDS011;6003;42.756;23.130;2022-11-15T09:11:03;48.77;;;11.87;;
11887;SDS011;6003;42.756;23.130;2022-11-15T09:13:32;53.70;;;13.20;;
11887;SDS011;6003;42.756;23.130;2022-11-15T09:15:59;49.03;;;14.40;;
11887;SDS011;6003;42.756;23.130;2022-11-15T09:18:27;35.70;;;12.57;;
11887;SDS011;6003;42.756;23.130;2022-11-15T09:20:55;84.43;;;13.23;;
11887;SDS011;6003;42.756;23.130;2022-11-15T09:23:22;34.70;;;11.87;;
11887;SDS011;6003;42.756;23.130;2022-11-15T09:25:50;52.67;;;14.20;;
11887;SDS011;6003;42.756;23.130;2022-11-15T09:28:17;51.90;;;15.10;;
11887;SDS011;6003;42.756;23.130;2022-11-15T09:30:45;36.53;;;11.60;;
11887;SDS011;6003;42.756;23.130;2022-11-15T09:33:12;40.53;;;14.20;;
11887;SDS011;6003;42.756;23.130;2022-11-15T09:35:39;45.00;;;13.67;;
11887;SDS011;6003;42.756;23.130;2022-11-15T09:38:07;44.43;;;14.47;;
11887;SDS011;6003;42.756;23.130;2022-11-15T09:40:35;34.13;;;15.97;;
11887;SDS011;6003;42.756;23.130;2022-11-15T09:43:09;27.47;;;13.37;;
11887;SDS011;6003;42.756;23.130;2022-11-15T09:45:55;21.80;;;9.47;;
11887;SDS011;6003;42.756;23.130;2022-11-15T12:42:35;63.50;;;24.50;;
11887;SDS011;6003;42.756;23.130;2022-11-15T12:47:52;59.70;;;25.23;;
11887;SDS011;6003;42.756;23.130;2022-11-15T12:53:25;60.93;;;26.10;;
11887;SDS011;6003;42.756;23.130;2022-11-15T12:58:47;61.33;;;25.57;;
11887;SDS011;6003;42.756;23.130;2022-11-15T13:04:23;52.27;;;20.90;;
11887;SDS011;6003;42.756;23.130;2022-11-15T13:06:52;67.87;;;27.93;;
11887;SDS011;6003;42.756;23.130;2022-11-15T13:15:40;61.80;;;28.13;;
11887;SDS011;6003;42.756;23.130;2022-11-15T13:18:25;65.83;;;28.67;;
11887;SDS011;6003;42.756;23.130;2022-11-15T13:20:55;55.57;;;23.50;;
11887;SDS011;6003;42.756;23.130;2022-11-15T13:23:21;67.90;;;28.67;;
11887;SDS011;6003;42.756;23.130;2022-11-15T13:25:55;64.90;;;25.50;;
11887;SDS011;6003;42.756;23.130;2022-11-15T13:28:36;70.60;;;27.83;;
11887;SDS011;6003;42.756;23.130;2022-11-15T13:31:17;60.03;;;24.80;;
11887;SDS011;6003;42.756;23.130;2022-11-15T13:33:49;67.67;;;28.43;;
11887;SDS011;6003;42.756;23.130;2022-11-15T13:36:18;65.20;;;28.87;;
11887;SDS011;6003;42.756;23.130;2022-11-15T13:38:54;58.00;;;26.60;;
11887;SDS011;6003;42.756;23.130;2022-11-15T13:41:25;61.80;;;27.83;;
11887;SDS011;6003;42.756;23.130;2022-11-15T13:43:54;64.37;;;26.83;;
11887;SDS011;6003;42.756;23.130;2022-11-15T13:46:24;58.30;;;26.07;;
11887;SDS011;6003;42.756;23.130;2022-11-15T13:48:53;64.37;;;27.10;;
11887;SDS011;6003;42.756;23.130;2022-11-15T13:51:24;64.83;;;25.57;;
11887;SDS011;6003;42.756;23.130;2022-11-15T13:53:57;59.33;;;26.37;;
11887;SDS011;6003;42.756;23.130;2022-11-15T13:56:28;59.83;;;27.00;;
11887;SDS011;6003;42.756;23.130;2022-11-15T13:58:57;59.43;;;26.80;;
11887;SDS011;6003;42.756;23.130;2022-11-15T14:01:26;62.83;;;28.17;;
11887;SDS011;6003;42.756;23.130;2022-11-15T14:03:58;58.10;;;26.43;;
11887;SDS011;6003;42.756;23.130;2022-11-15T14:06:28;55.50;;;26.07;;
11887;SDS011;6003;42.756;23.130;2022-11-15T14:09:04;54.10;;;24.67;;
11887;SDS011;6003;42.756;23.130;2022-11-15T14:11:51;57.17;;;25.70;;
11887;SDS011;6003;42.756;23.130;2022-11-15T14:14:20;55.40;;;24.33;;
11887;SDS011;6003;42.756;23.130;2022-11-15T14:16:49;59.80;;;26.93;;
11887;SDS011;6003;42.756;23.130;2022-11-15T14:19:35;59.87;;;24.47;;
11887;SDS011;6003;42.756;23.130;2022-11-15T14:22:08;58.67;;;26.83;;
11887;SDS011;6003;42.756;23.130;2022-11-15T14:24:46;58.90;;;24.37;;
11887;SDS011;6003;42.756;23.130;2022-11-15T14:27:31;64.87;;;25.47;;
11887;SDS011;6003;42.756;23.130;2022-11-15T14:29:59;79.37;;;28.77;;
11887;SDS011;6003;42.756;23.130;2022-11-15T14:32:28;59.83;;;25.30;;
11887;SDS011;6003;42.756;23.130;2022-11-15T14:34:57;54.90;;;23.30;;
11887;SDS011;6003;42.756;23.130;2022-11-15T14:37:25;42.33;;;19.27;;
11887;SDS011;6003;42.756;23.130;2022-11-15T14:39:53;49.10;;;20.57;;
11887;SDS011;6003;42.756;23.130;2022-11-15T14:42:21;48.77;;;22.03;;
11887;SDS011;6003;42.756;23.130;2022-11-15T14:44:49;52.07;;;21.63;;
11887;SDS011;6003;42.756;23.130;2022-11-15T14:47:16;48.17;;;21.77;;
11887;SDS011;6003;42.756;23.130;2022-11-15T14:49:45;48.37;;;22.57;;
11887;SDS011;6003;42.756;23.130;2022-11-15T14:52:19;45.73;;;21.57;;
11887;SDS011;6003;42.756;23.130;2022-11-15T14:54:50;45.93;;;20.63;;
11887;SDS011;6003;42.756;23.130;2022-11-15T14:57:17;47.27;;;22.00;;
11887;SDS011;6003;42.756;23.130;2022-11-15T14:59:44;45.67;;;21.53;;
11887;SDS011;6003;42.756;23.130;2022-11-15T15:02:13;47.83;;;20.50;;
11887;SDS011;6003;42.756;23.130;2022-11-15T15:04:42;47.00;;;22.73;;
11887;SDS011;6003;42.756;23.130;2022-11-15T15:07:11;57.03;;;23.63;;
11887;SDS011;6003;42.756;23.130;2022-11-15T15:09:38;45.53;;;22.67;;
11887;SDS011;6003;42.756;23.130;2022-11-15T15:12:05;50.23;;;25.10;;
11887;SDS011;6003;42.756;23.130;2022-11-15T15:14:48;54.43;;;25.03;;
11887;SDS011;6003;42.756;23.130;2022-11-15T15:17:16;52.73;;;25.17;;
11887;SDS011;6003;42.756;23.130;2022-11-15T15:19:44;59.47;;;24.57;;
11887;SDS011;6003;42.756;23.130;2022-11-15T15:22:13;64.57;;;27.37;;
11887;SDS011;6003;42.756;23.130;2022-11-15T15:24:42;57.27;;;25.40;;
11887;SDS011;6003;42.756;23.130;2022-11-15T15:27:09;52.00;;;24.80;;
11887;SDS011;6003;42.756;23.130;2022-11-15T15:29:36;63.00;;;27.10;;
11887;SDS011;6003;42.756;23.130;2022-11-15T15:32:03;46.70;;;22.50;;
11887;SDS011;6003;42.756;23.130;2022-11-15T15:34:30;47.30;;;21.60;;
11887;SDS011;6003;42.756;23.130;2022-11-15T15:37:08;50.37;;;23.93;;
11887;SDS011;6003;42.756;23.130;2022-11-15T15:39:45;65.40;;;25.80;;
11887;SDS011;6003;42.756;23.130;2022-11-15T15:42:12;55.83;;;26.87;;
11887;SDS011;6003;42.756;23.130;2022-11-15T15:44:38;64.33;;;26.93;;
11887;SDS011;6003;42.756;23.130;2022-11-15T15:47:07;58.53;;;26.13;;
11887;SDS011;6003;42.756;23.130;2022-11-15T15:49:37;57.23;;;26.70;;
11887;SDS011;6003;42.756;23.130;2022-11-15T15:52:04;66.90;;;26.37;;
11887;SDS011;6003;42.756;23.130;2022-11-15T15:54:32;56.57;;;24.13;;
11887;SDS011;6003;42.756;23.130;2022-11-15T15:56:59;56.67;;;25.67;;
11887;SDS011;6003;42.756;23.130;2022-11-15T15:59:26;52.60;;;24.17;;
11887;SDS011;6003;42.756;23.130;2022-11-15T16:01:52;62.17;;;27.37;;
11887;SDS011;6003;42.756;23.130;2022-11-15T16:04:19;56.97;;;23.90;;
11887;SDS011;6003;42.756;23.130;2022-11-15T16:06:46;53.70;;;24.33;;
11887;SDS011;6003;42.756;23.130;2022-11-15T16:09:15;50.37;;;24.70;;
11887;SDS011;6003;42.756;23.130;2022-11-15T16:11:45;55.03;;;26.10;;
11887;SDS011;6003;42.756;23.130;2022-11-15T16:14:12;60.00;;;27.37;;
11887;SDS011;6003;42.756;23.130;2022-11-15T16:16:39;56.83;;;29.03;;
11887;SDS011;6003;42.756;23.130;2022-11-15T16:19:06;60.07;;;30.20;;
11887;SDS011;6003;42.756;23.130;2022-11-15T16:21:35;60.47;;;27.87;;
11887;SDS011;6003;42.756;23.130;2022-11-15T16:24:02;58.60;;;27.10;;
11887;SDS011;6003;42.756;23.130;2022-11-15T16:26:29;53.07;;;25.77;;
11887;SDS011;6003;42.756;23.130;2022-11-15T16:28:58;55.27;;;24.27;;
11887;SDS011;6003;42.756;23.130;2022-11-15T16:31:24;57.03;;;26.57;;
11887;SDS011;6003;42.756;23.130;2022-11-15T16:33:51;67.50;;;27.90;;
11887;SDS011;6003;42.756;23.130;2022-11-15T16:36:19;45.03;;;22.30;;
11887;SDS011;6003;42.756;23.130;2022-11-15T16:38:48;49.63;;;22.30;;
11887;SDS011;6003;42.756;23.130;2022-11-15T16:41:15;52.27;;;21.83;;
11887;SDS011;6003;42.756;23.130;2022-11-15T16:43:43;45.97;;;23.40;;
11887;SDS011;6003;42.756;23.130;2022-11-15T16:46:17;56.90;;;23.43;;
11887;SDS011;6003;42.756;23.130;2022-11-15T16:48:44;57.13;;;23.80;;
11887;SDS011;6003;42.756;23.130;2022-11-15T16:51:12;53.23;;;25.00;;
11887;SDS011;6003;42.756;23.130;2022-11-15T16:53:39;60.83;;;24.87;;
11887;SDS011;6003;42.756;23.130;2022-11-15T16:56:13;51.40;;;23.03;;
11887;SDS011;6003;42.756;23.130;2022-11-15T16:58:44;61.77;;;26.07;;
11887;SDS011;6003;42.756;23.130;2022-11-15T17:01:14;55.07;;;26.03;;
11887;SDS011;6003;42.756;23.130;2022-11-15T17:03:45;52.93;;;24.27;;
11887;SDS011;6003;42.756;23.130;2022-11-15T17:06:12;45.97;;;23.03;;
11887;SDS011;6003;42.756;23.130;2022-11-15T17:08:40;54.17;;;24.80;;
11887;SDS011;6003;42.756;23.130;2022-11-15T17:11:07;54.00;;;24.83;;
11887;SDS011;6003;42.756;23.130;2022-11-15T17:13:34;56.67;;;25.73;;
11887;SDS011;6003;42.756;23.130;2022-11-15T17:16:05;55.23;;;25.93;;
11887;SDS011;6003;42.756;23.130;2022-11-15T17:18:35;68.97;;;31.90;;
11887;SDS011;6003;42.756;23.130;2022-11-15T17:21:03;68.70;;;32.87;;
11887;SDS011;6003;42.756;23.130;2022-11-15T17:23:31;71.70;;;30.10;;
11887;SDS011;6003;42.756;23.130;2022-11-15T17:25:59;59.03;;;26.00;;
11887;SDS011;6003;42.756;23.130;2022-11-15T17:28:29;52.60;;;23.33;;
11887;SDS011;6003;42.756;23.130;2022-11-15T17:30:56;47.27;;;22.83;;
11887;SDS011;6003;42.756;23.130;2022-11-15T17:33:23;59.60;;;25.67;;
11887;SDS011;6003;42.756;23.130;2022-11-15T17:35:58;55.93;;;23.53;;
11887;SDS011;6003;42.756;23.130;2022-11-15T17:38:27;46.03;;;24.27;;
11887;SDS011;6003;42.756;23.130;2022-11-15T17:41:00;81.13;;;33.80;;
11887;SDS011;6003;42.756;23.130;2022-11-15T17:43:28;85.00;;;32.13;;
11887;SDS011;6003;42.756;23.130;2022-11-15T17:45:56;80.83;;;33.27;;
11887;SDS011;6003;42.756;23.130;2022-11-15T17:48:23;76.63;;;30.80;;
11887;SDS011;6003;42.756;23.130;2022-11-15T17:50:54;59.60;;;28.47;;
11887;SDS011;6003;42.756;23.130;2022-11-15T17:53:23;55.50;;;28.10;;
11887;SDS011;6003;42.756;23.130;2022-11-15T17:55:50;54.27;;;25.23;;
11887;SDS011;6003;42.756;23.130;2022-11-15T17:58:17;76.70;;;29.17;;
11887;SDS011;6003;42.756;23.130;2022-11-15T18:00:44;57.27;;;25.80;;
11887;SDS011;6003;42.756;23.130;2022-11-15T18:03:12;52.07;;;24.80;;
11887;SDS011;6003;42.756;23.130;2022-11-15T18:05:39;51.40;;;24.03;;